sensor_id;sensor_type;location;lat;lon;timestamp;pressure;altitude;pressure_sealevel;temperature;humidity
9421;BME280;4749;51.398;5.466;2023-04-27T00:01:42;101830.09;;;6.78;100.00
9421;BME280;4749;51.398;5.466;2023-04-27T00:04:09;101831.66;;;6.73;100.00
9421;BME280;4749;51.398;5.466;2023-04-27T00:06:37;101831.50;;;6.69;100.00
9421;BME280;4749;51.398;5.466;2023-04-27T00:09:04;101833.84;;;6.61;100.00
9421;BME280;4749;51.398;5.466;2023-04-27T00:11:31;101825.66;;;6.51;100.00
9421;BME280;4749;51.398;5.466;2023-04-27T00:13:58;101834.16;;;6.45;100.00
9421;BME280;4749;51.398;5.466;2023-04-27T00:16:25;101832.22;;;6.39;100.00
9421;BME280;4749;51.398;5.466;2023-04-27T00:18:52;101833.88;;;6.37;100.00
9421;BME280;4749;51.398;5.466;2023-04-27T00:21:19;101832.00;;;6.33;100.00
9421;BME280;4749;51.398;5.466;2023-04-27T00:23:47;101836.22;;;6.30;100.00
9421;BME280;4749;51.398;5.466;2023-04-27T00:26:14;101840.56;;;6.29;100.00
9421;BME280;4749;51.398;5.466;2023-04-27T00:28:41;101837.88;;;6.28;100.00
9421;BME280;4749;51.398;5.466;2023-04-27T00:31:08;101838.63;;;6.24;100.00
9421;BME280;4749;51.398;5.466;2023-04-27T00:33:35;101838.50;;;6.20;100.00
9421;BME280;4749;51.398;5.466;2023-04-27T00:36:02;101846.22;;;6.17;100.00
9421;BME280;4749;51.398;5.466;2023-04-27T00:38:29;101843.44;;;6.13;100.00
9421;BME280;4749;51.398;5.466;2023-04-27T00:41:05;101847.63;;;6.08;100.00
9421;BME280;4749;51.398;5.466;2023-04-27T00:43:40;101843.94;;;6.03;100.00
9421;BME280;4749;51.398;5.466;2023-04-27T00:46:08;101833.41;;;6.00;100.00
9421;BME280;4749;51.398;5.466;2023-04-27T00:48:36;101838.47;;;5.97;100.00
9421;BME280;4749;51.398;5.466;2023-04-27T00:51:03;101840.16;;;5.95;100.00
9421;BME280;4749;51.398;5.466;2023-04-27T00:53:31;101839.22;;;5.92;100.00
9421;BME280;4749;51.398;5.466;2023-04-27T00:55:58;101836.56;;;5.91;100.00
9421;BME280;4749;51.398;5.466;2023-04-27T00:58:26;101843.41;;;5.89;100.00
9421;BME280;4749;51.398;5.466;2023-04-27T01:00:53;101840.66;;;5.86;100.00
9421;BME280;4749;51.398;5.466;2023-04-27T01:03:20;101836.22;;;5.83;100.00
9421;BME280;4749;51.398;5.466;2023-04-27T01:05:48;101840.50;;;5.81;100.00
9421;BME280;4749;51.398;5.466;2023-04-27T01:08:15;101843.97;;;5.80;100.00
9421;BME280;4749;51.398;5.466;2023-04-27T01:10:42;101843.13;;;5.81;100.00
9421;BME280;4749;51.398;5.466;2023-04-27T01:13:10;101843.88;;;5.79;100.00
9421;BME280;4749;51.398;5.466;2023-04-27T01:15:37;101835.94;;;5.76;100.00
9421;BME280;4749;51.398;5.466;2023-04-27T01:18:04;101843.72;;;5.74;100.00
9421;BME280;4749;51.398;5.466;2023-04-27T01:20:32;101840.16;;;5.72;100.00
9421;BME280;4749;51.398;5.466;2023-04-27T01:22:59;101838.31;;;5.70;100.00
9421;BME280;4749;51.398;5.466;2023-04-27T01:25:26;101840.91;;;5.70;100.00
9421;BME280;4749;51.398;5.466;2023-04-27T01:27:53;101847.03;;;5.70;100.00
9421;BME280;4749;51.398;5.466;2023-04-27T01:30:20;101839.97;;;5.68;100.00
9421;BME280;4749;51.398;5.466;2023-04-27T01:32:51;101842.53;;;5.66;100.00
9421;BME280;4749;51.398;5.466;2023-04-27T01:35:18;101834.50;;;5.61;100.00
9421;BME280;4749;51.398;5.466;2023-04-27T01:37:45;101838.69;;;5.56;100.00
9421;BME280;4749;51.398;5.466;2023-04-27T01:40:13;101834.16;;;5.52;100.00
9421;BME280;4749;51.398;5.466;2023-04-27T01:42:41;101834.00;;;5.48;100.00
9421;BME280;4749;51.398;5.466;2023-04-27T01:45:09;101834.69;;;5.44;100.00
9421;BME280;4749;51.398;5.466;2023-04-27T01:47:36;101826.72;;;5.39;100.00
9421;BME280;4749;51.398;5.466;2023-04-27T01:50:04;101824.91;;;5.38;100.00
9421;BME280;4749;51.398;5.466;2023-04-27T01:52:31;101832.66;;;5.36;100.00
9421;BME280;4749;51.398;5.466;2023-04-27T01:54:58;101826.56;;;5.36;100.00
9421;BME280;4749;51.398;5.466;2023-04-27T01:57:25;101828.28;;;5.35;100.00
9421;BME280;4749;51.398;5.466;2023-04-27T01:59:52;101828.16;;;5.32;100.00
9421;BME280;4749;51.398;5.466;2023-04-27T02:02:19;101829.94;;;5.33;100.00
9421;BME280;4749;51.398;5.466;2023-04-27T02:04:46;101821.19;;;5.31;100.00
9421;BME280;4749;51.398;5.466;2023-04-27T02:07:14;101820.28;;;5.31;100.00
9421;BME280;4749;51.398;5.466;2023-04-27T02:09:44;101822.00;;;5.30;100.00
9421;BME280;4749;51.398;5.466;2023-04-27T02:12:12;101817.59;;;5.29;100.00
9421;BME280;4749;51.398;5.466;2023-04-27T02:14:39;101815.81;;;5.28;100.00
9421;BME280;4749;51.398;5.466;2023-04-27T02:17:06;101824.47;;;5.27;100.00
9421;BME280;4749;51.398;5.466;2023-04-27T02:19:33;101820.97;;;5.27;100.00
9421;BME280;4749;51.398;5.466;2023-04-27T02:22:00;101823.47;;;5.24;100.00
9421;BME280;4749;51.398;5.466;2023-04-27T02:24:27;101813.84;;;5.21;100.00
9421;BME280;4749;51.398;5.466;2023-04-27T02:26:54;101806.00;;;5.21;100.00
9421;BME280;4749;51.398;5.466;2023-04-27T02:29:21;101809.41;;;5.20;100.00
9421;BME280;4749;51.398;5.466;2023-04-27T02:31:49;101810.25;;;5.19;100.00
9421;BME280;4749;51.398;5.466;2023-04-27T02:34:16;101796.28;;;5.17;100.00
9421;BME280;4749;51.398;5.466;2023-04-27T02:36:43;101804.03;;;5.16;100.00
9421;BME280;4749;51.398;5.466;2023-04-27T02:39:10;101797.78;;;5.12;100.00
9421;BME280;4749;51.398;5.466;2023-04-27T02:41:38;101797.69;;;5.09;100.00
9421;BME280;4749;51.398;5.466;2023-04-27T02:44:05;101799.34;;;5.07;100.00
9421;BME280;4749;51.398;5.466;2023-04-27T02:46:32;101805.25;;;5.03;100.00
9421;BME280;4749;51.398;5.466;2023-04-27T02:48:59;101799.94;;;5.00;100.00
9421;BME280;4749;51.398;5.466;2023-04-27T02:51:26;101809.47;;;4.99;100.00
9421;BME280;4749;51.398;5.466;2023-04-27T02:53:53;101811.03;;;4.96;100.00
9421;BME280;4749;51.398;5.466;2023-04-27T02:56:20;101815.34;;;4.95;100.00
9421;BME280;4749;51.398;5.466;2023-04-27T02:58:48;101810.91;;;4.93;100.00
9421;BME280;4749;51.398;5.466;2023-04-27T03:01:15;101810.88;;;4.91;100.00
9421;BME280;4749;51.398;5.466;2023-04-27T03:03:45;101807.25;;;4.88;100.00
9421;BME280;4749;51.398;5.466;2023-04-27T03:06:16;101803.69;;;4.86;100.00
9421;BME280;4749;51.398;5.466;2023-04-27T03:08:43;101801.00;;;4.84;100.00
9421;BME280;4749;51.398;5.466;2023-04-27T03:11:11;101807.81;;;4.80;100.00
9421;BME280;4749;51.398;5.466;2023-04-27T03:13:38;101801.63;;;4.78;100.00
9421;BME280;4749;51.398;5.466;2023-04-27T03:16:12;101801.53;;;4.75;100.00
9421;BME280;4749;51.398;5.466;2023-04-27T03:18:40;101806.69;;;4.74;100.00
9421;BME280;4749;51.398;5.466;2023-04-27T03:21:09;101804.84;;;4.71;100.00
9421;BME280;4749;51.398;5.466;2023-04-27T03:23:37;101809.06;;;4.69;100.00
9421;BME280;4749;51.398;5.466;2023-04-27T03:26:13;101802.81;;;4.64;100.00
9421;BME280;4749;51.398;5.466;2023-04-27T04:25:27;101836.78;;;3.88;100.00
9421;BME280;4749;51.398;5.466;2023-04-27T04:33:34;101842.88;;;3.89;100.00
9421;BME280;4749;51.398;5.466;2023-04-27T04:59:17;101859.25;;;4.25;100.00
9421;BME280;4749;51.398;5.466;2023-04-27T05:01:43;101855.22;;;4.32;100.00
9421;BME280;4749;51.398;5.466;2023-04-27T05:04:09;101862.59;;;4.42;100.00
9421;BME280;4749;51.398;5.466;2023-04-27T05:06:37;101863.75;;;4.48;100.00
9421;BME280;4749;51.398;5.466;2023-04-27T05:09:05;101867.66;;;4.58;100.00
9421;BME280;4749;51.398;5.466;2023-04-27T05:11:32;101854.06;;;4.65;100.00
9421;BME280;4749;51.398;5.466;2023-04-27T05:13:59;101864.03;;;4.75;100.00
9421;BME280;4749;51.398;5.466;2023-04-27T05:16:26;101867.09;;;4.86;100.00
9421;BME280;4749;51.398;5.466;2023-04-27T05:18:53;101876.28;;;4.97;100.00
9421;BME280;4749;51.398;5.466;2023-04-27T05:21:20;101873.22;;;5.07;100.00
9421;BME280;4749;51.398;5.466;2023-04-27T05:23:48;101880.47;;;5.15;100.00
9421;BME280;4749;51.398;5.466;2023-04-27T05:26:17;101873.81;;;5.21;100.00
9421;BME280;4749;51.398;5.466;2023-04-27T05:28:44;101872.19;;;5.25;100.00
9421;BME280;4749;51.398;5.466;2023-04-27T05:31:12;101871.56;;;5.30;100.00
9421;BME280;4749;51.398;5.466;2023-04-27T05:33:40;101870.91;;;5.36;100.00
9421;BME280;4749;51.398;5.466;2023-04-27T05:36:07;101879.81;;;5.41;100.00
9421;BME280;4749;51.398;5.466;2023-04-27T05:38:35;101880.94;;;5.48;100.00
9421;BME280;4749;51.398;5.466;2023-04-27T05:41:06;101880.34;;;5.55;100.00
9421;BME280;4749;51.398;5.466;2023-04-27T05:43:33;101886.81;;;5.64;100.00
9421;BME280;4749;51.398;5.466;2023-04-27T05:46:01;101882.06;;;5.77;100.00
9421;BME280;4749;51.398;5.466;2023-04-27T05:48:29;101881.59;;;5.87;100.00
9421;BME280;4749;51.398;5.466;2023-04-27T05:51:02;101888.16;;;5.98;100.00
9421;BME280;4749;51.398;5.466;2023-04-27T05:53:32;101891.06;;;6.06;100.00
9421;BME280;4749;51.398;5.466;2023-04-27T05:56:00;101895.75;;;6.14;100.00
9421;BME280;4749;51.398;5.466;2023-04-27T05:58:27;101897.03;;;6.26;100.00
9421;BME280;4749;51.398;5.466;2023-04-27T06:00:54;101896.50;;;6.36;100.00
9421;BME280;4749;51.398;5.466;2023-04-27T06:03:22;101898.56;;;6.44;100.00
9421;BME280;4749;51.398;5.466;2023-04-27T06:05:57;101894.47;;;6.51;100.00
9421;BME280;4749;51.398;5.466;2023-04-27T06:08:25;101893.00;;;6.59;100.00
9421;BME280;4749;51.398;5.466;2023-04-27T06:10:53;101908.13;;;6.68;100.00
9421;BME280;4749;51.398;5.466;2023-04-27T06:13:20;101897.09;;;6.76;100.00
9421;BME280;4749;51.398;5.466;2023-04-27T06:15:47;101894.81;;;6.86;100.00
9421;BME280;4749;51.398;5.466;2023-04-27T06:18:15;101883.88;;;6.97;100.00
9421;BME280;4749;51.398;5.466;2023-04-27T06:20:42;101886.91;;;7.10;100.00
9421;BME280;4749;51.398;5.466;2023-04-27T06:23:09;101878.63;;;7.23;100.00
9421;BME280;4749;51.398;5.466;2023-04-27T06:25:36;101877.25;;;7.34;100.00
9421;BME280;4749;51.398;5.466;2023-04-27T06:28:06;101883.00;;;7.49;100.00
9421;BME280;4749;51.398;5.466;2023-04-27T06:30:33;101873.81;;;7.63;100.00
9421;BME280;4749;51.398;5.466;2023-04-27T06:33:01;101882.16;;;7.79;100.00
9421;BME280;4749;51.398;5.466;2023-04-27T06:35:28;101890.50;;;7.96;100.00
9421;BME280;4749;51.398;5.466;2023-04-27T06:37:55;101895.16;;;8.06;100.00
9421;BME280;4749;51.398;5.466;2023-04-27T06:40:25;101896.28;;;8.14;100.00
9421;BME280;4749;51.398;5.466;2023-04-27T06:42:52;101897.53;;;8.27;100.00
9421;BME280;4749;51.398;5.466;2023-04-27T06:45:19;101888.31;;;8.39;100.00
9421;BME280;4749;51.398;5.466;2023-04-27T06:47:46;101894.91;;;8.57;100.00
9421;BME280;4749;51.398;5.466;2023-04-27T06:50:14;101893.34;;;8.63;100.00
9421;BME280;4749;51.398;5.466;2023-04-27T06:52:42;101881.47;;;8.76;100.00
9421;BME280;4749;51.398;5.466;2023-04-27T06:55:09;101892.41;;;8.93;100.00
9421;BME280;4749;51.398;5.466;2023-04-27T06:57:36;101892.81;;;9.08;100.00
9421;BME280;4749;51.398;5.466;2023-04-27T07:00:04;101898.31;;;9.19;100.00
9421;BME280;4749;51.398;5.466;2023-04-27T07:02:32;101896.75;;;9.25;100.00
9421;BME280;4749;51.398;5.466;2023-04-27T07:04:59;101901.34;;;9.34;100.00
9421;BME280;4749;51.398;5.466;2023-04-27T07:07:26;101890.19;;;9.44;100.00
9421;BME280;4749;51.398;5.466;2023-04-27T07:09:53;101892.06;;;9.50;100.00
9421;BME280;4749;51.398;5.466;2023-04-27T07:12:21;101887.00;;;9.57;100.00
9421;BME280;4749;51.398;5.466;2023-04-27T07:14:48;101886.31;;;9.66;100.00
9421;BME280;4749;51.398;5.466;2023-04-27T07:17:16;101887.38;;;9.74;100.00
9421;BME280;4749;51.398;5.466;2023-04-27T07:19:43;101884.06;;;9.83;100.00
9421;BME280;4749;51.398;5.466;2023-04-27T07:22:10;101887.66;;;9.86;100.00
9421;BME280;4749;51.398;5.466;2023-04-27T07:24:38;101892.19;;;9.92;100.00
9421;BME280;4749;51.398;5.466;2023-04-27T07:27:05;101899.47;;;10.07;100.00
9421;BME280;4749;51.398;5.466;2023-04-27T07:29:32;101899.91;;;10.25;100.00
9421;BME280;4749;51.398;5.466;2023-04-27T07:32:00;101903.69;;;10.38;100.00
9421;BME280;4749;51.398;5.466;2023-04-27T07:34:28;101898.72;;;10.53;100.00
9421;BME280;4749;51.398;5.466;2023-04-27T07:37:15;101890.28;;;10.69;100.00
9421;BME280;4749;51.398;5.466;2023-04-27T07:39:47;101896.63;;;10.81;100.00
9421;BME280;4749;51.398;5.466;2023-04-27T07:42:15;101891.53;;;10.91;100.00
9421;BME280;4749;51.398;5.466;2023-04-27T07:44:42;101898.75;;;11.02;100.00
9421;BME280;4749;51.398;5.466;2023-04-27T07:47:09;101902.47;;;11.14;100.00
9421;BME280;4749;51.398;5.466;2023-04-27T07:49:36;101893.91;;;11.26;100.00
9421;BME280;4749;51.398;5.466;2023-04-27T07:52:04;101889.72;;;11.37;100.00
9421;BME280;4749;51.398;5.466;2023-04-27T07:54:31;101895.13;;;11.48;100.00
9421;BME280;4749;51.398;5.466;2023-04-27T07:56:58;101887.41;;;11.60;100.00
9421;BME280;4749;51.398;5.466;2023-04-27T07:59:28;101881.44;;;11.70;100.00
9421;BME280;4749;51.398;5.466;2023-04-27T08:01:56;101880.72;;;11.80;100.00
9421;BME280;4749;51.398;5.466;2023-04-27T08:04:43;101879.97;;;11.89;100.00
9421;BME280;4749;51.398;5.466;2023-04-27T08:07:10;101885.38;;;12.00;100.00
9421;BME280;4749;51.398;5.466;2023-04-27T08:09:38;101885.50;;;12.09;100.00
9421;BME280;4749;51.398;5.466;2023-04-27T08:12:05;101889.22;;;12.25;100.00
9421;BME280;4749;51.398;5.466;2023-04-27T08:14:34;101884.97;;;12.36;100.00
9421;BME280;4749;51.398;5.466;2023-04-27T08:17:01;101894.78;;;12.49;100.00
9421;BME280;4749;51.398;5.466;2023-04-27T08:19:29;101897.59;;;12.61;100.00
9421;BME280;4749;51.398;5.466;2023-04-27T08:21:56;101887.13;;;12.72;100.00
9421;BME280;4749;51.398;5.466;2023-04-27T08:24:23;101899.53;;;12.82;100.00
9421;BME280;4749;51.398;5.466;2023-04-27T08:26:50;101889.94;;;12.89;100.00
9421;BME280;4749;51.398;5.466;2023-04-27T08:29:17;101890.97;;;13.03;100.00
9421;BME280;4749;51.398;5.466;2023-04-27T08:31:55;101884.03;;;13.19;100.00
9421;BME280;4749;51.398;5.466;2023-04-27T08:34:23;101875.34;;;13.28;100.00
9421;BME280;4749;51.398;5.466;2023-04-27T08:36:50;101862.19;;;13.31;100.00
9421;BME280;4749;51.398;5.466;2023-04-27T08:39:17;101863.97;;;13.35;100.00
9421;BME280;4749;51.398;5.466;2023-04-27T08:41:44;101860.50;;;13.45;100.00
9421;BME280;4749;51.398;5.466;2023-04-27T08:44:12;101861.47;;;13.55;100.00
9421;BME280;4749;51.398;5.466;2023-04-27T08:46:39;101857.09;;;13.61;98.96
9421;BME280;4749;51.398;5.466;2023-04-27T08:49:06;101858.91;;;13.70;97.02
9421;BME280;4749;51.398;5.466;2023-04-27T08:51:34;101859.81;;;13.78;94.99
9421;BME280;4749;51.398;5.466;2023-04-27T08:54:02;101868.72;;;13.89;94.02
9421;BME280;4749;51.398;5.466;2023-04-27T08:56:30;101858.19;;;13.98;92.84
9421;BME280;4749;51.398;5.466;2023-04-27T08:58:57;101867.94;;;14.12;91.79
9421;BME280;4749;51.398;5.466;2023-04-27T09:01:26;101865.34;;;14.25;91.20
9421;BME280;4749;51.398;5.466;2023-04-27T09:04:00;101864.50;;;14.37;86.99
9421;BME280;4749;51.398;5.466;2023-04-27T09:06:34;101863.72;;;14.47;85.60
9421;BME280;4749;51.398;5.466;2023-04-27T09:09:03;101856.66;;;14.55;84.65
9421;BME280;4749;51.398;5.466;2023-04-27T09:11:31;101852.25;;;14.62;84.76
9421;BME280;4749;51.398;5.466;2023-04-27T09:14:02;101860.22;;;14.74;82.93
9421;BME280;4749;51.398;5.466;2023-04-27T09:16:30;101860.25;;;14.83;81.84
9421;BME280;4749;51.398;5.466;2023-04-27T09:18:57;101846.13;;;14.90;79.99
9421;BME280;4749;51.398;5.466;2023-04-27T09:21:28;101847.91;;;15.05;79.73
9421;BME280;4749;51.398;5.466;2023-04-27T09:23:56;101852.31;;;15.14;78.11
9421;BME280;4749;51.398;5.466;2023-04-27T09:26:26;101851.44;;;15.24;76.15
9421;BME280;4749;51.398;5.466;2023-04-27T09:28:54;101848.78;;;15.30;74.88
9421;BME280;4749;51.398;5.466;2023-04-27T09:31:32;101848.75;;;15.36;74.66
9421;BME280;4749;51.398;5.466;2023-04-27T09:33:59;101849.63;;;15.43;74.24
9421;BME280;4749;51.398;5.466;2023-04-27T09:36:27;101851.41;;;15.48;73.79
9421;BME280;4749;51.398;5.466;2023-04-27T09:39:01;101849.63;;;15.60;72.49
9421;BME280;4749;51.398;5.466;2023-04-27T09:41:28;101840.81;;;15.64;72.37
9421;BME280;4749;51.398;5.466;2023-04-27T09:43:57;101846.94;;;15.80;72.23
9421;BME280;4749;51.398;5.466;2023-04-27T09:46:25;101838.06;;;15.87;71.33
9421;BME280;4749;51.398;5.466;2023-04-27T09:48:55;101832.75;;;15.94;70.77
9421;BME280;4749;51.398;5.466;2023-04-27T09:51:23;101845.13;;;15.94;69.24
9421;BME280;4749;51.398;5.466;2023-04-27T09:53:54;101836.28;;;15.95;68.57
9421;BME280;4749;51.398;5.466;2023-04-27T09:59:40;101831.75;;;16.23;67.15
9421;BME280;4749;51.398;5.466;2023-04-27T10:02:15;101830.78;;;16.35;65.75
9421;BME280;4749;51.398;5.466;2023-04-27T10:07:55;101827.91;;;16.73;65.51
9421;BME280;4749;51.398;5.466;2023-04-27T10:10:23;101829.56;;;16.92;64.26
9421;BME280;4749;51.398;5.466;2023-04-27T10:13:00;101832.16;;;17.01;62.70
9421;BME280;4749;51.398;5.466;2023-04-27T10:15:28;101829.44;;;17.09;63.08
9421;BME280;4749;51.398;5.466;2023-04-27T10:18:03;101820.41;;;17.27;62.80
9421;BME280;4749;51.398;5.466;2023-04-27T10:20:36;101827.25;;;17.48;62.62
9421;BME280;4749;51.398;5.466;2023-04-27T10:23:03;101829.78;;;17.63;62.64
9421;BME280;4749;51.398;5.466;2023-04-27T10:25:39;101835.91;;;17.71;61.25
9421;BME280;4749;51.398;5.466;2023-04-27T10:28:07;101833.25;;;17.69;61.03
9421;BME280;4749;51.398;5.466;2023-04-27T10:30:36;101837.69;;;17.70;60.33
9421;BME280;4749;51.398;5.466;2023-04-27T10:33:09;101841.22;;;17.74;59.87
9421;BME280;4749;51.398;5.466;2023-04-27T10:35:39;101831.41;;;17.78;59.64
9421;BME280;4749;51.398;5.466;2023-04-27T10:38:18;101834.91;;;17.81;59.13
9421;BME280;4749;51.398;5.466;2023-04-27T10:41:01;101835.72;;;17.88;58.98
9421;BME280;4749;51.398;5.466;2023-04-27T10:43:33;101833.88;;;17.94;58.72
9421;BME280;4749;51.398;5.466;2023-04-27T10:46:13;101822.28;;;17.98;58.30
9421;BME280;4749;51.398;5.466;2023-04-27T10:48:44;101815.25;;;17.94;57.93
9421;BME280;4749;51.398;5.466;2023-04-27T10:51:15;101825.97;;;17.88;57.78
9421;BME280;4749;51.398;5.466;2023-04-27T10:53:43;101817.97;;;17.90;57.99
9421;BME280;4749;51.398;5.466;2023-04-27T10:56:11;101810.97;;;17.81;58.12
9421;BME280;4749;51.398;5.466;2023-04-27T10:58:39;101810.22;;;17.70;57.75
9421;BME280;4749;51.398;5.466;2023-04-27T11:01:25;101796.97;;;17.64;57.56
9421;BME280;4749;51.398;5.466;2023-04-27T11:03:57;101797.91;;;17.57;57.23
9421;BME280;4749;51.398;5.466;2023-04-27T11:06:26;101794.53;;;17.44;57.30
9421;BME280;4749;51.398;5.466;2023-04-27T11:08:54;101785.63;;;17.47;57.20
9421;BME280;4749;51.398;5.466;2023-04-27T11:11:21;101783.88;;;17.45;57.27
9421;BME280;4749;51.398;5.466;2023-04-27T11:13:49;101784.75;;;17.49;57.27
9421;BME280;4749;51.398;5.466;2023-04-27T11:16:19;101790.94;;;17.48;56.74
9421;BME280;4749;51.398;5.466;2023-04-27T11:18:46;101777.75;;;17.40;56.47
9421;BME280;4749;51.398;5.466;2023-04-27T11:21:16;101784.00;;;17.32;55.90
9421;BME280;4749;51.398;5.466;2023-04-27T11:23:45;101776.25;;;17.12;55.78
9421;BME280;4749;51.398;5.466;2023-04-27T11:26:16;101786.16;;;16.95;55.71
9421;BME280;4749;51.398;5.466;2023-04-27T11:29:05;101774.78;;;16.77;55.08
9421;BME280;4749;51.398;5.466;2023-04-27T11:31:47;101772.16;;;16.74;55.28
9421;BME280;4749;51.398;5.466;2023-04-27T11:34:18;101766.88;;;16.70;55.24
9421;BME280;4749;51.398;5.466;2023-04-27T11:37:00;101755.34;;;16.72;55.38
9421;BME280;4749;51.398;5.466;2023-04-27T11:39:44;101761.56;;;16.70;55.70
9421;BME280;4749;51.398;5.466;2023-04-27T11:42:20;101759.75;;;16.76;55.74
9421;BME280;4749;51.398;5.466;2023-04-27T11:45:04;101767.69;;;16.82;55.25
9421;BME280;4749;51.398;5.466;2023-04-27T11:47:35;101773.81;;;16.87;55.09
9421;BME280;4749;51.398;5.466;2023-04-27T11:50:05;101769.34;;;16.93;54.45
9421;BME280;4749;51.398;5.466;2023-04-27T11:52:35;101751.63;;;16.95;54.90
9421;BME280;4749;51.398;5.466;2023-04-27T11:55:03;101767.53;;;16.99;54.54
9421;BME280;4749;51.398;5.466;2023-04-27T11:57:35;101766.59;;;17.02;54.44
9421;BME280;4749;51.398;5.466;2023-04-27T12:00:04;101768.25;;;17.13;54.55
9421;BME280;4749;51.398;5.466;2023-04-27T12:02:37;101762.84;;;17.23;54.24
9421;BME280;4749;51.398;5.466;2023-04-27T12:05:05;101761.97;;;17.25;54.37
9421;BME280;4749;51.398;5.466;2023-04-27T12:07:33;101766.31;;;17.32;54.57
9421;BME280;4749;51.398;5.466;2023-04-27T12:10:01;101760.13;;;17.30;54.22
9421;BME280;4749;51.398;5.466;2023-04-27T12:12:28;101755.69;;;17.29;54.01
9421;BME280;4749;51.398;5.466;2023-04-27T12:14:55;101745.06;;;17.29;53.80
9421;BME280;4749;51.398;5.466;2023-04-27T12:17:22;101749.38;;;17.39;53.36
9421;BME280;4749;51.398;5.466;2023-04-27T12:19:49;101742.28;;;17.43;52.95
9421;BME280;4749;51.398;5.466;2023-04-27T12:22:16;101745.69;;;17.53;52.78
9421;BME280;4749;51.398;5.466;2023-04-27T12:24:43;101752.72;;;17.57;51.94
9421;BME280;4749;51.398;5.466;2023-04-27T12:27:11;101744.81;;;17.52;51.79
9421;BME280;4749;51.398;5.466;2023-04-27T12:29:38;101752.78;;;17.54;51.91
9421;BME280;4749;51.398;5.466;2023-04-27T12:32:06;101740.41;;;17.51;51.49
9421;BME280;4749;51.398;5.466;2023-04-27T12:34:33;101734.19;;;17.52;51.27
9421;BME280;4749;51.398;5.466;2023-04-27T12:37:00;101741.25;;;17.53;51.19
9421;BME280;4749;51.398;5.466;2023-04-27T12:39:27;101741.22;;;17.55;50.83
9421;BME280;4749;51.398;5.466;2023-04-27T12:41:55;101735.06;;;17.53;51.20
9421;BME280;4749;51.398;5.466;2023-04-27T12:44:24;101727.03;;;17.57;50.67
9421;BME280;4749;51.398;5.466;2023-04-27T12:46:51;101734.06;;;17.61;50.44
9421;BME280;4749;51.398;5.466;2023-04-27T12:49:18;101733.13;;;17.65;50.50
9421;BME280;4749;51.398;5.466;2023-04-27T12:51:45;101727.78;;;17.68;50.48
9421;BME280;4749;51.398;5.466;2023-04-27T12:54:13;101725.91;;;17.78;50.12
9421;BME280;4749;51.398;5.466;2023-04-27T12:56:41;101730.25;;;17.85;50.10
9421;BME280;4749;51.398;5.466;2023-04-27T12:59:08;101722.16;;;17.93;50.25
9421;BME280;4749;51.398;5.466;2023-04-27T13:01:35;101715.75;;;18.08;50.09
9421;BME280;4749;51.398;5.466;2023-04-27T13:04:05;101727.19;;;18.13;49.59
9421;BME280;4749;51.398;5.466;2023-04-27T13:06:33;101721.94;;;18.10;50.37
9421;BME280;4749;51.398;5.466;2023-04-27T13:09:00;101709.47;;;18.12;50.60
9421;BME280;4749;51.398;5.466;2023-04-27T13:11:28;101717.25;;;18.25;50.06
9421;BME280;4749;51.398;5.466;2023-04-27T13:13:55;101715.31;;;18.37;50.16
9421;BME280;4749;51.398;5.466;2023-04-27T13:16:22;101713.44;;;18.43;50.06
9421;BME280;4749;51.398;5.466;2023-04-27T13:18:52;101712.47;;;18.47;49.59
9421;BME280;4749;51.398;5.466;2023-04-27T13:21:21;101721.09;;;18.63;49.75
9421;BME280;4749;51.398;5.466;2023-04-27T13:23:49;101716.38;;;18.80;49.75
9421;BME280;4749;51.398;5.466;2023-04-27T13:26:17;101704.44;;;19.03;49.44
9421;BME280;4749;51.398;5.466;2023-04-27T13:28:44;101705.59;;;19.34;49.25
9421;BME280;4749;51.398;5.466;2023-04-27T13:31:12;101691.88;;;19.53;48.46
9421;BME280;4749;51.398;5.466;2023-04-27T13:33:43;101691.69;;;19.63;48.69
9421;BME280;4749;51.398;5.466;2023-04-27T13:36:11;101685.19;;;19.77;48.50
9421;BME280;4749;51.398;5.466;2023-04-27T13:38:38;101675.22;;;19.85;48.63
9421;BME280;4749;51.398;5.466;2023-04-27T13:41:06;101681.97;;;20.00;48.92
9421;BME280;4749;51.398;5.466;2023-04-27T13:43:34;101683.69;;;20.04;48.60
9421;BME280;4749;51.398;5.466;2023-04-27T13:46:02;101680.00;;;20.08;48.65
9421;BME280;4749;51.398;5.466;2023-04-27T13:48:29;101674.72;;;20.06;48.31
9421;BME280;4749;51.398;5.466;2023-04-27T13:50:57;101673.13;;;19.98;48.41
9421;BME280;4749;51.398;5.466;2023-04-27T13:53:25;101669.72;;;19.91;48.82
9421;BME280;4749;51.398;5.466;2023-04-27T13:55:54;101674.94;;;19.97;48.55
9421;BME280;4749;51.398;5.466;2023-04-27T13:58:22;101662.38;;;20.01;48.48
9421;BME280;4749;51.398;5.466;2023-04-27T14:00:52;101662.09;;;20.13;48.34
9421;BME280;4749;51.398;5.466;2023-04-27T14:03:20;101661.84;;;20.23;48.01
9421;BME280;4749;51.398;5.466;2023-04-27T14:05:48;101651.88;;;20.30;47.90
9421;BME280;4749;51.398;5.466;2023-04-27T14:08:17;101645.22;;;20.48;47.73
9421;BME280;4749;51.398;5.466;2023-04-27T14:10:45;101645.00;;;20.57;47.92
9421;BME280;4749;51.398;5.466;2023-04-27T14:13:12;101651.00;;;20.65;47.70
9421;BME280;4749;51.398;5.466;2023-04-27T14:15:40;101638.47;;;20.67;47.65
9421;BME280;4749;51.398;5.466;2023-04-27T14:18:08;101633.13;;;20.69;47.67
9421;BME280;4749;51.398;5.466;2023-04-27T14:20:37;101633.91;;;20.72;47.74
9421;BME280;4749;51.398;5.466;2023-04-27T14:23:05;101626.66;;;20.76;47.13
9421;BME280;4749;51.398;5.466;2023-04-27T14:25:33;101622.03;;;20.83;46.71
9421;BME280;4749;51.398;5.466;2023-04-27T14:28:04;101621.09;;;20.85;46.44
9421;BME280;4749;51.398;5.466;2023-04-27T14:30:32;101609.56;;;20.83;46.18
9421;BME280;4749;51.398;5.466;2023-04-27T14:32:59;101609.38;;;20.89;46.61
9421;BME280;4749;51.398;5.466;2023-04-27T14:35:27;101617.34;;;20.91;46.07
9421;BME280;4749;51.398;5.466;2023-04-27T14:37:54;101608.38;;;20.93;46.30
9421;BME280;4749;51.398;5.466;2023-04-27T14:40:23;101603.72;;;21.00;46.33
9421;BME280;4749;51.398;5.466;2023-04-27T14:42:50;101608.00;;;21.07;45.91
9421;BME280;4749;51.398;5.466;2023-04-27T14:45:17;101594.56;;;21.08;45.80
9421;BME280;4749;51.398;5.466;2023-04-27T14:47:44;101593.78;;;21.05;45.58
9421;BME280;4749;51.398;5.466;2023-04-27T14:50:12;101593.41;;;20.88;45.47